createdAt,value
2023-01-28T00:01:57.613Z,4.07
2023-01-28T00:04:25.505Z,4.23
2023-01-28T00:06:53.663Z,4.33
2023-01-28T00:09:20.530Z,4.23
2023-01-28T00:11:47.354Z,4.47
2023-01-28T00:14:14.294Z,3.97
2023-01-28T00:16:41.152Z,4.00
2023-01-28T00:19:08.387Z,4.40
2023-01-28T00:21:35.160Z,3.83
2023-01-28T00:24:02.100Z,4.40
2023-01-28T00:26:30.210Z,4.13
2023-01-28T00:28:57.292Z,4.10
2023-01-28T00:31:27.476Z,4.00
2023-01-28T00:33:55.502Z,4.00
2023-01-28T00:36:24.775Z,4.40
2023-01-28T00:39:00.179Z,3.87
2023-01-28T00:41:28.906Z,3.43
2023-01-28T00:43:55.823Z,3.53
2023-01-28T00:46:23.819Z,3.23
2023-01-28T00:48:50.808Z,4.10
2023-01-28T00:51:20.180Z,3.37
2023-01-28T00:53:48.317Z,3.47
2023-01-28T00:56:17.875Z,3.67
2023-01-28T00:58:45.593Z,2.93
2023-01-28T01:01:18.333Z,4.73
2023-01-28T01:03:45.707Z,3.40
2023-01-28T01:06:15.005Z,3.30
2023-01-28T01:08:42.922Z,3.27
2023-01-28T01:11:11.493Z,3.20
2023-01-28T01:13:38.622Z,3.10
2023-01-28T01:16:11.453Z,4.47
2023-01-28T01:18:42.385Z,4.27
2023-01-28T01:21:17.940Z,4.13
2023-01-28T01:23:45.422Z,4.20
2023-01-28T01:26:12.863Z,3.93
2023-01-28T01:28:39.790Z,4.57
2023-01-28T01:31:12.763Z,4.53
2023-01-28T01:33:39.967Z,5.00
2023-01-28T01:36:07.753Z,5.00
2023-01-28T01:38:36.846Z,4.67
2023-01-28T01:41:05.175Z,4.90
2023-01-28T01:43:55.064Z,5.07
2023-01-28T01:46:48.633Z,5.10
2023-01-28T01:49:25.217Z,5.67
2023-01-28T01:51:56.220Z,5.07
2023-01-28T01:54:27.532Z,5.43
2023-01-28T01:56:55.119Z,5.03
2023-01-28T01:59:29.980Z,5.17
2023-01-28T02:02:01.267Z,5.37
2023-01-28T02:04:36.190Z,4.70
2023-01-28T02:07:03.206Z,5.20
2023-01-28T02:09:32.459Z,6.17
2023-01-28T02:12:05.075Z,5.33
2023-01-28T02:14:35.662Z,5.73
2023-01-28T02:17:03.469Z,6.50
2023-01-28T02:19:54.090Z,5.97
2023-01-28T02:22:29.677Z,5.27
2023-01-28T02:25:12.165Z,4.80
2023-01-28T02:28:02.515Z,5.63
2023-01-28T02:30:35.395Z,5.00
2023-01-28T02:33:36.357Z,5.53
2023-01-28T02:36:22.217Z,5.57
2023-01-28T02:38:52.908Z,5.50
2023-01-28T02:41:31.778Z,6.47
2023-01-28T02:44:01.477Z,5.00
2023-01-28T02:46:49.156Z,5.10
2023-01-28T02:49:31.530Z,5.67
2023-01-28T02:52:48.455Z,5.30
2023-01-28T02:55:39.170Z,5.60
2023-01-28T02:58:31.643Z,5.23
2023-01-28T03:01:15.246Z,5.47
2023-01-28T03:03:44.549Z,5.20
2023-01-28T03:06:16.174Z,5.60
2023-01-28T03:09:06.301Z,6.03
2023-01-28T03:11:56.088Z,6.10
2023-01-28T03:14:42.913Z,5.63
2023-01-28T03:17:35.246Z,5.60
2023-01-28T03:20:20.746Z,5.80
2023-01-28T03:23:10.482Z,4.87
2023-01-28T03:25:59.084Z,5.57
2023-01-28T03:28:47.154Z,5.33
2023-01-28T03:31:35.141Z,5.90
2023-01-28T03:34:22.286Z,5.37
2023-01-28T03:36:49.928Z,5.80
2023-01-28T03:39:18.883Z,6.47
2023-01-28T03:42:06.755Z,5.63
2023-01-28T03:44:52.617Z,5.43
2023-01-28T03:47:24.655Z,5.93
2023-01-28T03:49:53.558Z,5.37
2023-01-28T03:52:23.048Z,5.40
2023-01-28T03:54:50.206Z,5.17
2023-01-28T03:57:18.678Z,6.20
2023-01-28T03:59:45.510Z,5.87
2023-01-28T04:02:12.969Z,5.70
2023-01-28T04:04:40.643Z,5.50
2023-01-28T04:07:10.551Z,5.60
2023-01-28T04:09:38.584Z,5.23
2023-01-28T04:12:06.125Z,6.30
2023-01-28T04:14:33.442Z,6.33
2023-01-28T04:17:00.252Z,6.00
2023-01-28T04:19:28.245Z,6.13
2023-01-28T04:21:55.325Z,6.60
2023-01-28T04:24:23.413Z,5.80
2023-01-28T04:26:50.311Z,5.73
2023-01-28T04:29:17.068Z,5.60
2023-01-28T04:31:43.911Z,5.50
2023-01-28T04:34:10.680Z,5.93
2023-01-28T04:36:37.491Z,5.50
2023-01-28T04:39:04.616Z,5.80
2023-01-28T04:41:31.455Z,6.03
2023-01-28T04:43:58.226Z,5.37
2023-01-28T04:46:25.030Z,6.00
2023-01-28T04:48:51.855Z,5.90
2023-01-28T04:51:18.778Z,5.40
2023-01-28T04:53:46.377Z,5.07
2023-01-28T04:56:13.302Z,4.90
2023-01-28T04:58:40.184Z,5.27
2023-01-28T05:01:08.177Z,6.70
2023-01-28T05:03:36.446Z,6.03
2023-01-28T05:06:05.156Z,5.63
2023-01-28T05:08:32.135Z,5.70
2023-01-28T05:10:58.899Z,6.90
2023-01-28T05:13:25.641Z,6.70
2023-01-28T05:15:53.976Z,6.43
2023-01-28T05:18:20.777Z,7.40
2023-01-28T05:20:48.743Z,6.23
2023-01-28T05:23:15.553Z,5.50
2023-01-28T05:25:42.299Z,6.40
2023-01-28T05:28:09.042Z,7.00
2023-01-28T05:30:35.852Z,6.60
2023-01-28T05:33:02.612Z,7.10
2023-01-28T05:35:29.432Z,6.33
2023-01-28T05:37:56.187Z,6.70
2023-01-28T05:40:22.967Z,6.30
2023-01-28T05:42:49.722Z,6.50
2023-01-28T05:45:16.928Z,6.10
2023-01-28T05:47:45.726Z,6.10
2023-01-28T05:50:14.718Z,6.47
2023-01-28T05:52:43.068Z,6.53
2023-01-28T05:55:11.635Z,6.27
2023-01-28T05:57:38.443Z,7.10
2023-01-28T06:00:05.905Z,7.57
2023-01-28T06:02:32.807Z,6.67
2023-01-28T06:05:00.502Z,7.80
2023-01-28T06:07:27.397Z,7.00
2023-01-28T06:09:54.339Z,7.27
2023-01-28T06:12:23.295Z,7.30
2023-01-28T06:14:50.109Z,7.10
2023-01-28T06:17:16.976Z,6.50
2023-01-28T06:19:44.101Z,7.10
2023-01-28T06:22:11.305Z,7.50
2023-01-28T06:24:38.141Z,7.20
2023-01-28T06:27:04.853Z,8.27
2023-01-28T06:29:31.835Z,7.50
2023-01-28T06:31:58.800Z,7.57
2023-01-28T06:34:25.947Z,7.17
2023-01-28T06:36:53.453Z,8.27
2023-01-28T06:39:24.335Z,8.00
2023-01-28T06:41:51.200Z,7.57
2023-01-28T06:44:18.102Z,7.93
2023-01-28T06:46:44.923Z,6.77
2023-01-28T06:49:11.753Z,7.83
2023-01-28T06:51:38.492Z,7.10
2023-01-28T06:54:05.535Z,7.67
2023-01-28T06:56:32.753Z,8.37
2023-01-28T06:59:02.637Z,8.63
2023-01-28T07:01:29.785Z,7.73
2023-01-28T07:03:56.856Z,7.63
2023-01-28T07:06:26.498Z,7.90
2023-01-28T07:08:55.094Z,7.47
2023-01-28T07:11:22.338Z,8.07
2023-01-28T07:13:49.124Z,7.70
2023-01-28T07:16:16.398Z,7.33
2023-01-28T07:18:43.120Z,7.03
2023-01-28T07:21:09.887Z,7.30
2023-01-28T07:23:36.655Z,8.20
2023-01-28T07:26:04.638Z,8.73
2023-01-28T07:28:35.252Z,8.00
2023-01-28T07:31:02.149Z,8.87
2023-01-28T07:33:28.948Z,8.23
2023-01-28T07:35:55.835Z,8.43
2023-01-28T07:38:22.609Z,8.07
2023-01-28T07:40:49.435Z,9.07
2023-01-28T07:43:16.421Z,8.77
2023-01-28T07:45:43.202Z,8.63
2023-01-28T07:48:13.566Z,8.37
2023-01-28T07:50:41.097Z,8.70
2023-01-28T07:53:11.227Z,8.50
2023-01-28T07:55:40.085Z,7.60
2023-01-28T07:58:08.360Z,7.43
2023-01-28T08:00:40.293Z,8.77
2023-01-28T08:03:16.739Z,8.83
2023-01-28T08:05:49.085Z,8.90
2023-01-28T08:08:16.538Z,9.50
2023-01-28T08:10:44.777Z,9.47
2023-01-28T08:13:13.731Z,9.20
2023-01-28T08:15:41.166Z,9.17
2023-01-28T08:18:10.661Z,9.10
2023-01-28T08:20:37.465Z,9.13
2023-01-28T08:23:09.503Z,10.57
2023-01-28T08:25:36.376Z,9.77
2023-01-28T08:28:03.861Z,10.80
2023-01-28T08:30:30.985Z,10.53
2023-01-28T08:32:59.529Z,10.73
2023-01-28T08:35:27.891Z,10.57
2023-01-28T08:37:55.127Z,11.13
2023-01-28T08:40:22.428Z,11.33
2023-01-28T08:42:53.433Z,11.30
2023-01-28T08:45:27.520Z,11.33
2023-01-28T08:48:03.548Z,10.80
2023-01-28T08:50:33.332Z,11.23
2023-01-28T08:53:03.732Z,12.10
2023-01-28T08:55:38.603Z,11.87
2023-01-28T08:58:06.901Z,11.30
2023-01-28T09:00:35.311Z,12.13
2023-01-28T09:03:17.053Z,11.80
2023-01-28T09:05:53.680Z,12.60
2023-01-28T09:08:20.718Z,12.60
2023-01-28T09:10:47.524Z,11.97
2023-01-28T09:13:16.117Z,12.83
2023-01-28T09:15:43.886Z,12.40
2023-01-28T09:18:10.910Z,12.40
2023-01-28T09:20:39.874Z,12.80
2023-01-28T09:23:07.506Z,12.93
2023-01-28T09:25:36.295Z,12.80
2023-01-28T09:28:03.327Z,13.70
2023-01-28T09:30:30.166Z,13.10
2023-01-28T09:32:58.432Z,13.00
2023-01-28T09:35:25.603Z,13.57
2023-01-28T09:37:56.215Z,13.33
2023-01-28T09:40:42.235Z,13.30
2023-01-28T09:43:41.001Z,12.67
2023-01-28T09:46:12.995Z,12.00
2023-01-28T09:48:47.520Z,12.73
2023-01-28T09:51:32.574Z,12.93
2023-01-28T09:54:21.226Z,13.07
2023-01-28T09:56:52.257Z,12.83
2023-01-28T09:59:22.157Z,12.77
2023-01-28T10:01:59.892Z,12.63
2023-01-28T10:04:46.768Z,12.47
2023-01-28T10:07:52.588Z,10.70
2023-01-28T10:10:29.831Z,11.23
2023-01-28T10:13:34.769Z,12.00
2023-01-28T10:16:36.022Z,11.40
2023-01-28T10:19:17.141Z,11.80
2023-01-28T10:22:02.246Z,10.80
2023-01-28T10:25:06.324Z,12.27
2023-01-28T10:27:40.998Z,12.17
2023-01-28T10:30:23.744Z,11.33
2023-01-28T10:33:04.385Z,11.40
2023-01-28T10:35:41.927Z,12.30
2023-01-28T10:38:13.606Z,10.83
2023-01-28T10:40:44.344Z,10.77
2023-01-28T10:43:11.185Z,10.67
2023-01-28T10:45:42.271Z,10.33
2023-01-28T10:48:28.287Z,10.73
2023-01-28T10:51:00.505Z,11.27
2023-01-28T10:53:53.869Z,11.20
2023-01-28T10:56:32.761Z,10.53
2023-01-28T10:59:18.052Z,11.10
2023-01-28T11:01:46.245Z,10.37
2023-01-28T11:04:22.300Z,10.80
2023-01-28T11:06:54.147Z,10.60
2023-01-28T11:09:22.706Z,9.80
2023-01-28T11:11:49.602Z,9.13
2023-01-28T11:14:22.003Z,9.80
2023-01-28T11:16:50.451Z,9.23
2023-01-28T11:19:20.552Z,8.63
2023-01-28T11:21:55.101Z,8.13
2023-01-28T11:24:26.396Z,8.90
2023-01-28T11:26:55.703Z,8.17
2023-01-28T11:29:33.357Z,8.10
2023-01-28T11:32:01.256Z,7.93
2023-01-28T11:34:33.211Z,7.60
2023-01-28T11:37:16.261Z,7.60
2023-01-28T11:39:43.444Z,8.10
2023-01-28T11:42:18.989Z,8.73
2023-01-28T11:44:47.386Z,7.80
2023-01-28T11:47:14.207Z,8.13
2023-01-28T11:50:02.657Z,8.40
2023-01-28T11:53:02.672Z,8.70
2023-01-28T11:55:34.403Z,9.67
2023-01-28T11:58:20.451Z,8.87
2023-01-28T12:01:22.885Z,9.33
2023-01-28T12:04:17.906Z,8.60
2023-01-28T12:06:56.996Z,10.37
2023-01-28T12:09:36.186Z,8.63
2023-01-28T12:12:12.082Z,11.37
2023-01-28T12:15:04.273Z,10.17
2023-01-28T12:17:41.845Z,9.80
2023-01-28T12:20:31.751Z,8.30
2023-01-28T12:23:04.458Z,8.10
2023-01-28T12:26:08.955Z,7.57
2023-01-28T12:28:38.931Z,7.40
2023-01-28T12:31:33.594Z,7.07
2023-01-28T12:34:15.653Z,7.73
2023-01-28T12:37:19.680Z,7.57
2023-01-28T12:40:17.380Z,7.37
2023-01-28T12:43:23.955Z,7.53
2023-01-28T12:46:10.849Z,7.37
2023-01-28T12:49:06.307Z,7.70
2023-01-28T12:51:50.949Z,7.43
2023-01-28T12:54:41.463Z,8.97
2023-01-28T12:57:23.031Z,7.90
2023-01-28T12:59:56.689Z,8.00
2023-01-28T13:02:33.178Z,8.80
2023-01-28T13:05:11.624Z,8.27
2023-01-28T13:08:01.782Z,7.40
2023-01-28T13:10:51.436Z,8.37
2023-01-28T13:13:39.665Z,7.83
2023-01-28T13:16:17.884Z,8.10
2023-01-28T13:18:47.093Z,7.93
2023-01-28T13:21:48.655Z,7.13
2023-01-28T13:24:16.152Z,7.80
2023-01-28T13:26:55.026Z,7.70
2023-01-28T13:29:32.668Z,7.63
2023-01-28T13:32:02.867Z,8.47
2023-01-28T13:34:36.372Z,8.10
2023-01-28T13:37:37.768Z,8.33
2023-01-28T13:40:13.500Z,7.63
2023-01-28T13:42:57.248Z,8.13
2023-01-28T13:45:28.673Z,7.60
2023-01-28T13:48:21.323Z,8.10
2023-01-28T13:51:05.217Z,8.20
2023-01-28T13:53:56.154Z,8.17
2023-01-28T13:56:31.327Z,8.33
2023-01-28T13:59:10.174Z,7.70
2023-01-28T14:01:43.398Z,8.97
2023-01-28T14:04:18.846Z,8.00
2023-01-28T14:06:48.341Z,8.60
2023-01-28T14:09:32.518Z,7.73
2023-01-28T14:12:20.450Z,7.10
2023-01-28T14:15:12.449Z,9.33
2023-01-28T14:17:47.317Z,9.47
2023-01-28T14:20:27.523Z,9.23
2023-01-28T14:23:04.463Z,8.87
2023-01-28T14:26:10.255Z,8.97
2023-01-28T14:29:08.009Z,9.37
2023-01-28T14:31:39.360Z,9.17
2023-01-28T14:34:43.374Z,8.80
2023-01-28T14:37:19.989Z,8.97
2023-01-28T14:39:53.090Z,9.33
2023-01-28T14:42:44.918Z,9.50
2023-01-28T14:45:31.566Z,10.07
2023-01-28T14:48:14.753Z,9.93
2023-01-28T14:51:12.300Z,9.63
2023-01-28T14:54:00.867Z,9.67
2023-01-28T14:56:50.568Z,10.53
2023-01-28T14:59:51.368Z,8.87
2023-01-28T15:02:24.421Z,8.47
2023-01-28T15:04:56.188Z,9.53
2023-01-28T15:07:34.984Z,9.40
2023-01-28T15:10:07.807Z,10.00
2023-01-28T15:12:41.139Z,9.77
2023-01-28T15:15:17.287Z,9.33
2023-01-28T15:17:44.210Z,10.17
2023-01-28T15:20:19.448Z,9.23
2023-01-28T15:22:46.908Z,8.67
2023-01-28T15:25:19.847Z,9.00
2023-01-28T15:27:47.409Z,9.27
2023-01-28T15:30:31.984Z,9.33
2023-01-28T15:33:20.460Z,8.57
2023-01-28T15:35:48.793Z,9.13
2023-01-28T15:38:20.119Z,8.93
2023-01-28T15:41:17.381Z,9.00
2023-01-28T15:43:49.159Z,8.87
2023-01-28T15:46:16.457Z,8.93
2023-01-28T15:48:53.465Z,8.53
2023-01-28T15:51:28.255Z,8.43
2023-01-28T15:54:05.399Z,8.47
2023-01-28T15:56:35.853Z,8.37
2023-01-28T15:59:32.506Z,8.60
2023-01-28T16:02:29.498Z,8.83
2023-01-28T16:05:12.768Z,8.67
2023-01-28T16:07:47.694Z,9.00
2023-01-28T16:10:32.532Z,7.60
2023-01-28T16:13:07.208Z,8.67
2023-01-28T16:15:34.549Z,7.47
2023-01-28T16:18:01.739Z,8.07
2023-01-28T16:20:30.406Z,8.70
2023-01-28T16:23:00.799Z,8.00
2023-01-28T16:25:37.019Z,8.43
2023-01-28T16:28:13.818Z,8.40
2023-01-28T16:30:40.705Z,8.63
2023-01-28T16:33:19.680Z,8.83
2023-01-28T16:36:04.658Z,8.73
2023-01-28T16:38:38.753Z,9.67
2023-01-28T16:41:05.634Z,8.77
2023-01-28T16:46:08.087Z,9.30
2023-01-28T16:48:42.777Z,9.20
2023-01-28T16:51:22.931Z,10.60
2023-01-28T16:53:52.410Z,10.30
2023-01-28T16:56:43.978Z,10.00
2023-01-28T16:59:13.623Z,9.70
2023-01-28T17:01:40.839Z,8.87
2023-01-28T17:04:13.040Z,9.47
2023-01-28T17:06:46.915Z,10.67
2023-01-28T17:09:15.224Z,10.27
2023-01-28T17:11:42.594Z,9.77
2023-01-28T17:14:11.092Z,10.70
2023-01-28T17:16:38.594Z,10.20
2023-01-28T17:19:05.922Z,11.70
2023-01-28T17:21:33.815Z,11.60
2023-01-28T17:24:01.507Z,11.43
2023-01-28T17:26:33.901Z,11.33
2023-01-28T17:29:03.047Z,11.73
2023-01-28T17:31:29.943Z,12.27
2023-01-28T17:33:58.768Z,11.37
2023-01-28T17:36:28.390Z,11.80
2023-01-28T17:38:56.402Z,11.90
2023-01-28T17:41:23.396Z,12.33
2023-01-28T17:43:54.788Z,11.67
2023-01-28T17:46:23.039Z,12.07
2023-01-28T17:48:54.576Z,11.80
2023-01-28T17:51:23.764Z,11.30
2023-01-28T17:53:56.434Z,11.80
2023-01-28T17:56:28.409Z,11.60
2023-01-28T17:59:02.789Z,11.77
2023-01-28T18:01:30.914Z,11.43
2023-01-28T18:04:02.103Z,12.10
2023-01-28T18:06:37.630Z,13.23
2023-01-28T18:09:09.786Z,12.73
2023-01-28T18:11:38.956Z,14.07
2023-01-28T18:14:05.880Z,13.87
2023-01-28T18:16:32.863Z,15.13
2023-01-28T18:18:59.679Z,14.70
2023-01-28T18:21:54.176Z,15.93
2023-01-28T18:24:27.251Z,13.37
2023-01-28T18:26:55.674Z,15.57
2023-01-28T18:29:24.203Z,15.53
2023-01-28T18:31:54.991Z,14.73
2023-01-28T18:34:23.925Z,15.17
2023-01-28T18:36:51.197Z,16.27
2023-01-28T18:39:20.063Z,14.40
2023-01-28T18:41:48.572Z,14.07
2023-01-28T18:44:30.196Z,15.03
2023-01-28T18:46:57.282Z,16.27
2023-01-28T18:49:27.986Z,15.87
2023-01-28T18:52:02.730Z,15.47
2023-01-28T18:54:33.035Z,15.60
2023-01-28T18:57:08.311Z,15.47
2023-01-28T18:59:35.236Z,17.03
2023-01-28T19:02:13.324Z,15.90
2023-01-28T19:04:46.671Z,16.07
2023-01-28T19:07:13.675Z,15.67
2023-01-28T19:09:43.260Z,15.40
2023-01-28T19:12:10.154Z,16.23
2023-01-28T19:14:37.016Z,15.37
2023-01-28T19:17:03.842Z,15.03
2023-01-28T19:19:40.026Z,15.10
2023-01-28T19:22:06.936Z,15.77
2023-01-28T19:24:47.112Z,15.27
2023-01-28T19:27:14.736Z,16.50
2023-01-28T19:29:41.673Z,15.90
2023-01-28T19:32:08.653Z,16.80
2023-01-28T19:34:35.421Z,15.57
2023-01-28T19:37:02.143Z,15.37
2023-01-28T19:39:32.871Z,17.63
2023-01-28T19:42:02.255Z,16.33
2023-01-28T19:44:29.875Z,15.80
2023-01-28T19:46:57.201Z,14.87
2023-01-28T19:49:24.743Z,14.90
2023-01-28T19:51:51.992Z,13.87
2023-01-28T19:54:19.036Z,13.40
2023-01-28T19:56:45.974Z,14.03
2023-01-28T19:59:23.840Z,14.70
2023-01-28T20:01:50.726Z,15.40
2023-01-28T20:04:18.691Z,15.20
2023-01-28T20:06:49.543Z,15.00
2023-01-28T20:09:20.111Z,15.07
2023-01-28T20:11:53.933Z,15.77
2023-01-28T20:14:21.728Z,15.70
2023-01-28T20:16:49.010Z,15.00
2023-01-28T20:19:19.388Z,16.07
2023-01-28T20:21:47.414Z,16.10
2023-01-28T20:24:21.147Z,15.70
2023-01-28T20:26:48.961Z,16.33
2023-01-28T20:29:18.679Z,15.93
2023-01-28T20:32:09.114Z,16.30
2023-01-28T20:34:43.715Z,16.17
2023-01-28T20:37:18.740Z,16.37
2023-01-28T20:39:53.744Z,15.30
2023-01-28T20:42:28.686Z,15.57
2023-01-28T20:44:55.745Z,15.43
2023-01-28T20:47:22.636Z,15.50
2023-01-28T20:49:49.420Z,15.30
2023-01-28T20:52:16.966Z,15.03
2023-01-28T20:54:54.510Z,16.63
2023-01-28T20:57:21.559Z,15.07
2023-01-28T20:59:50.283Z,15.50
2023-01-28T21:02:18.546Z,15.70
2023-01-28T21:04:46.661Z,15.13
2023-01-28T21:07:16.851Z,15.13
2023-01-28T21:09:43.571Z,15.60
2023-01-28T21:12:10.453Z,15.97
2023-01-28T21:14:37.198Z,15.90
2023-01-28T21:17:04.202Z,16.03
2023-01-28T21:19:31.063Z,15.80
2023-01-28T21:21:58.037Z,16.23
2023-01-28T21:24:29.280Z,16.13
2023-01-28T21:26:56.543Z,15.37
2023-01-28T21:29:29.507Z,15.83
2023-01-28T21:32:00.219Z,14.47
2023-01-28T21:34:27.093Z,15.83
2023-01-28T21:36:58.214Z,16.23
2023-01-28T21:39:25.114Z,15.60
2023-01-28T21:41:52.127Z,15.57
2023-01-28T21:44:18.862Z,16.07
2023-01-28T21:46:49.755Z,15.20
2023-01-28T21:49:16.837Z,15.97
2023-01-28T21:51:47.115Z,15.33
2023-01-28T21:54:17.310Z,16.20
2023-01-28T21:56:45.170Z,15.43
2023-01-28T21:59:28.345Z,15.43
2023-01-28T22:01:59.701Z,15.67
2023-01-28T22:04:35.165Z,15.70
2023-01-28T22:07:03.869Z,16.10
2023-01-28T22:09:31.249Z,16.10
2023-01-28T22:11:58.047Z,16.10
2023-01-28T22:14:25.108Z,16.83
2023-01-28T22:16:52.375Z,16.97
2023-01-28T22:19:19.434Z,16.30
2023-01-28T22:21:46.952Z,17.17
2023-01-28T22:24:19.401Z,15.87
2023-01-28T22:26:47.692Z,16.30
2023-01-28T22:29:16.081Z,16.10
2023-01-28T22:31:45.497Z,17.50
2023-01-28T22:34:12.439Z,15.77
2023-01-28T22:36:41.752Z,17.63
2023-01-28T22:39:13.035Z,16.90
2023-01-28T22:41:40.393Z,16.93
2023-01-28T22:44:07.466Z,17.40
2023-01-28T22:46:35.056Z,17.17
2023-01-28T22:49:02.048Z,17.50
2023-01-28T22:51:30.864Z,17.37
2023-01-28T22:53:58.157Z,16.73
2023-01-28T22:56:26.909Z,18.47
2023-01-28T22:58:58.562Z,18.70
2023-01-28T23:01:25.462Z,17.73
2023-01-28T23:03:53.212Z,16.77
2023-01-28T23:06:22.154Z,17.90
2023-01-28T23:08:49.929Z,17.57
2023-01-28T23:11:25.331Z,16.87
2023-01-28T23:14:13.013Z,17.77
2023-01-28T23:16:58.949Z,16.97
2023-01-28T23:19:45.051Z,17.13
2023-01-28T23:22:46.643Z,16.13
2023-01-28T23:25:14.053Z,16.97
2023-01-28T23:27:41.059Z,17.77
2023-01-28T23:30:10.346Z,17.90
2023-01-28T23:32:43.853Z,16.67
2023-01-28T23:35:11.289Z,16.60
2023-01-28T23:37:38.707Z,16.77
2023-01-28T23:40:07.035Z,17.47
2023-01-28T23:42:33.952Z,17.17
2023-01-28T23:45:00.852Z,16.23
2023-01-28T23:47:27.950Z,15.93
2023-01-28T23:49:54.881Z,15.77
2023-01-28T23:52:21.972Z,16.87
2023-01-28T23:54:48.832Z,16.27
2023-01-28T23:57:15.694Z,16.23
2023-01-28T23:59:42.963Z,15.57
